PWSweather.com
Personal Weather Stations
Station Observations
KNVELKO7
Elko, NV 89801

Elko, NV 89801

Lat: 40.963233, Lon: -115.592836

Elevation: 5230

Station Type: WS-2812

Latest ConditionsUpdated 3:21:22 AM PDT Thursday, Oct 2, 2014
Currently Today's Max Today's Min Today's Average
Temperature 28.8°F-1.8°C 34.2°F1.2°C 28.8°F-1.8°C 31.6°F-0.2°C
Dew Point 23.1°F-4.9°C 25.8°F-3.4°C 22.8°F-5.1°C 24.5°F-4.2°C
Winds 0.3 mph ENE0.5 kmh ENE 3.0 mph 4.8 kmh - 0.5 mph 0.8 kmh
Wind Gusts 1.3 mph2.1 kmh 3.4 mph5.5 kmh - -
Humidity 79% 79% 69% 75%
Pressure 30.22 in1023.4 mb 30.22 in1023.4 mb 30.20 in1022.7 mb -
Hour Temp Dew Point Humidity Winds Wind Gusts Pressure Precip Precip Rate Daily Precip Total
03:21 AM 28.8°F-1.8°C 23.1°F-4.9°C 79% 0.3 mph ENE0.5 kmh ENE 1.3 mph2.1 kmh 30.22 in1023.4 mb 0.00 in0.0 mm 0.00 in/hr0.0 mm/hr 0.00 in0.0 mm
03:16 AM 28.8°F-1.8°C 22.8°F-5.1°C 78% 0.4 mph ENE0.6 kmh ENE 1.3 mph2.1 kmh 30.22 in1023.4 mb 0.00 in0.0 mm 0.00 in/hr0.0 mm/hr 0.00 in0.0 mm
03:11 AM 28.8°F-1.8°C 22.8°F-5.1°C 78% 0.7 mph ENE1.1 kmh ENE 1.1 mph1.8 kmh 30.22 in1023.4 mb 0.00 in0.0 mm 0.00 in/hr0.0 mm/hr 0.00 in0.0 mm
03:06 AM 29.0°F-1.7°C 23.0°F-5.0°C 78% 0.2 mph ENE0.3 kmh ENE 0.2 mph0.3 kmh 30.22 in1023.4 mb 0.00 in0.0 mm 0.00 in/hr0.0 mm/hr 0.00 in0.0 mm
03:01 AM 29.2°F-1.6°C 23.1°F-4.9°C 78% Calm Calm -- 30.22 in1023.4 mb 0.00 in0.0 mm 0.00 in/hr0.0 mm/hr 0.00 in0.0 mm
02:56 AM 29.5°F-1.4°C 23.1°F-4.9°C 77% Calm Calm -- 30.22 in1023.4 mb 0.00 in0.0 mm 0.00 in/hr0.0 mm/hr 0.00 in0.0 mm
02:51 AM 29.9°F-1.2°C 23.9°F-4.5°C 78% Calm Calm 0.2 mph0.3 kmh 30.22 in1023.4 mb 0.00 in0.0 mm 0.00 in/hr0.0 mm/hr 0.00 in0.0 mm
02:46 AM 30.1°F-1.1°C 24.0°F-4.4°C 78% 0.2 mph 0.3 kmh 0.7 mph1.1 kmh 30.22 in1023.4 mb 0.00 in0.0 mm 0.00 in/hr0.0 mm/hr 0.00 in0.0 mm
02:41 AM 30.1°F-1.1°C 24.0°F-4.4°C 78% 0.4 mph 0.6 kmh 0.7 mph1.1 kmh 30.22 in1023.4 mb 0.00 in0.0 mm 0.00 in/hr0.0 mm/hr 0.00 in0.0 mm
02:36 AM 30.2°F-1.0°C 24.2°F-4.3°C 78% 0.2 mph 0.3 kmh 0.2 mph0.3 kmh 30.22 in1023.4 mb 0.00 in0.0 mm 0.00 in/hr0.0 mm/hr 0.00 in0.0 mm
02:31 AM 30.2°F-1.0°C 24.2°F-4.3°C 78% Calm Calm -- 30.22 in1023.4 mb 0.00 in0.0 mm 0.00 in/hr0.0 mm/hr 0.00 in0.0 mm
02:26 AM 30.4°F-0.9°C 24.0°F-4.4°C 77% Calm Calm -- 30.22 in1023.4 mb 0.00 in0.0 mm 0.00 in/hr0.0 mm/hr 0.00 in0.0 mm
02:21 AM 30.6°F-0.8°C 24.6°F-4.1°C 78% Calm Calm 0.2 mph0.3 kmh 30.22 in1023.4 mb 0.00 in0.0 mm 0.00 in/hr0.0 mm/hr 0.00 in0.0 mm
02:16 AM 30.8°F-0.7°C 24.4°F-4.2°C 77% Calm Calm 0.4 mph0.6 kmh 30.22 in1023.4 mb 0.00 in0.0 mm 0.00 in/hr0.0 mm/hr 0.00 in0.0 mm
02:11 AM 31.1°F-0.5°C 24.8°F-4.0°C 77% 0.4 mph 0.6 kmh 0.4 mph0.6 kmh 30.22 in1023.4 mb 0.00 in0.0 mm 0.00 in/hr0.0 mm/hr 0.00 in0.0 mm
02:06 AM 31.3°F-0.4°C 24.9°F-3.9°C 77% Calm Calm 0.4 mph0.6 kmh 30.22 in1023.4 mb 0.00 in0.0 mm 0.00 in/hr0.0 mm/hr 0.00 in0.0 mm
02:01 AM 31.7°F-0.2°C 25.3°F-3.7°C 77% 0.2 mph ENE0.3 kmh ENE 0.9 mph1.4 kmh 30.22 in1023.4 mb 0.00 in0.0 mm 0.00 in/hr0.0 mm/hr 0.00 in0.0 mm
01:55 AM 31.7°F-0.2°C 25.3°F-3.7°C 77% 0.8 mph ENE1.3 kmh ENE 2.7 mph4.3 kmh 30.22 in1023.4 mb 0.00 in0.0 mm 0.00 in/hr0.0 mm/hr 0.00 in0.0 mm
01:50 AM 31.5°F-0.3°C 24.9°F-3.9°C 76% 1.1 mph NNE1.8 kmh NNE 2.7 mph4.3 kmh 30.22 in1023.4 mb 0.00 in0.0 mm 0.00 in/hr0.0 mm/hr 0.00 in0.0 mm
01:45 AM 31.5°F-0.3°C 24.9°F-3.9°C 76% 2.0 mph NNE3.2 kmh NNE 2.7 mph4.3 kmh 30.22 in1023.4 mb 0.00 in0.0 mm 0.00 in/hr0.0 mm/hr 0.00 in0.0 mm
01:40 AM 31.5°F-0.3°C 24.9°F-3.9°C 76% 2.0 mph NE3.2 kmh NE 2.7 mph4.3 kmh 30.22 in1023.4 mb 0.00 in0.0 mm 0.00 in/hr0.0 mm/hr 0.00 in0.0 mm
01:35 AM 31.3°F-0.4°C 24.3°F-4.3°C 75% 1.5 mph NNE2.4 kmh NNE 1.8 mph2.9 kmh 30.21 in1023.0 mb 0.00 in0.0 mm 0.00 in/hr0.0 mm/hr 0.00 in0.0 mm
01:30 AM 31.5°F-0.3°C 24.1°F-4.4°C 74% 0.6 mph NNE1.0 kmh NNE 0.7 mph1.1 kmh 30.21 in1023.0 mb 0.00 in0.0 mm 0.00 in/hr0.0 mm/hr 0.00 in0.0 mm
01:26 AM 31.3°F-0.4°C 23.7°F-4.6°C 73% 0.4 mph NNE0.6 kmh NNE 0.4 mph0.6 kmh 30.21 in1023.0 mb 0.00 in0.0 mm 0.00 in/hr0.0 mm/hr 0.00 in0.0 mm
01:21 AM 31.5°F-0.3°C 24.1°F-4.4°C 74% Calm Calm -- 30.21 in1023.0 mb 0.00 in0.0 mm 0.00 in/hr0.0 mm/hr 0.00 in0.0 mm
01:16 AM 31.7°F-0.2°C 24.0°F-4.4°C 73% Calm Calm -- 30.20 in1022.7 mb 0.00 in0.0 mm 0.00 in/hr0.0 mm/hr 0.00 in0.0 mm
01:11 AM 32.0°F0.0°C 24.4°F-4.2°C 73% Calm Calm -- 30.20 in1022.7 mb 0.00 in0.0 mm 0.00 in/hr0.0 mm/hr 0.00 in0.0 mm
01:06 AM 32.4°F0.2°C 24.7°F-4.1°C 73% Calm Calm -- 30.20 in1022.7 mb 0.00 in0.0 mm 0.00 in/hr0.0 mm/hr 0.00 in0.0 mm
01:01 AM 32.6°F0.3°C 24.8°F-4.0°C 73% Calm Calm -- 30.20 in1022.7 mb 0.00 in0.0 mm 0.00 in/hr0.0 mm/hr 0.00 in0.0 mm
12:55 AM 32.8°F0.4°C 25.0°F-3.9°C 73% Calm Calm 0.2 mph0.3 kmh 30.20 in1022.7 mb 0.00 in0.0 mm 0.00 in/hr0.0 mm/hr 0.00 in0.0 mm
12:50 AM 32.9°F0.5°C 24.8°F-4.0°C 72% 0.2 mph 0.3 kmh 0.2 mph0.3 kmh 30.20 in1022.7 mb 0.00 in0.0 mm 0.00 in/hr0.0 mm/hr 0.00 in0.0 mm
12:45 AM 33.5°F0.8°C 25.4°F-3.7°C 72% Calm Calm 1.8 mph2.9 kmh 30.20 in1022.7 mb 0.00 in0.0 mm 0.00 in/hr0.0 mm/hr 0.00 in0.0 mm
12:40 AM 33.7°F0.9°C 25.5°F-3.6°C 72% Calm Calm 1.8 mph2.9 kmh 30.20 in1022.7 mb 0.00 in0.0 mm 0.00 in/hr0.0 mm/hr 0.00 in0.0 mm
12:35 AM 33.8°F1.0°C 25.7°F-3.5°C 72% 1.5 mph NNE2.4 kmh NNE 1.6 mph2.6 kmh 30.20 in1022.7 mb 0.00 in0.0 mm 0.00 in/hr0.0 mm/hr 0.00 in0.0 mm
12:30 AM 34.0°F1.1°C 25.6°F-3.6°C 71% 1.1 mph NNE1.8 kmh NNE 1.1 mph1.8 kmh 30.20 in1022.7 mb 0.00 in0.0 mm 0.00 in/hr0.0 mm/hr 0.00 in0.0 mm
12:25 AM 34.0°F1.1°C 25.6°F-3.6°C 71% 0.2 mph 0.3 kmh 0.4 mph0.6 kmh 30.20 in1022.7 mb 0.00 in0.0 mm 0.00 in/hr0.0 mm/hr 0.00 in0.0 mm
12:20 AM 34.2°F1.2°C 25.8°F-3.4°C 71% 0.2 mph 0.3 kmh 3.1 mph5.0 kmh 30.20 in1022.7 mb 0.00 in0.0 mm 0.00 in/hr0.0 mm/hr 0.00 in0.0 mm
12:15 AM 34.0°F1.1°C 25.6°F-3.6°C 71% 0.7 mph 1.1 kmh 3.1 mph5.0 kmh 30.21 in1023.0 mb 0.00 in0.0 mm 0.00 in/hr0.0 mm/hr 0.00 in0.0 mm
12:10 AM 33.8°F1.0°C 25.0°F-3.9°C 70% 1.8 mph 2.9 kmh 3.4 mph5.5 kmh 30.20 in1022.7 mb 0.00 in0.0 mm 0.00 in/hr0.0 mm/hr 0.00 in0.0 mm
12:05 AM 34.0°F1.1°C 25.2°F-3.8°C 70% 3.0 mph 4.8 kmh 3.4 mph5.5 kmh 30.20 in1022.7 mb 0.00 in0.0 mm 0.00 in/hr0.0 mm/hr 0.00 in0.0 mm
12:01 AM 34.2°F1.2°C 25.0°F-3.9°C 69% 1.1 mph 1.8 kmh 1.1 mph1.8 kmh 30.20 in1022.7 mb 0.00 in0.0 mm 0.00 in/hr0.0 mm/hr 0.00 in0.0 mm